Time;durP1;ratioP1;P1;durP2;ratioP2;P2;SDS_P1;SDS_P2;PMS_P1;PMS_P2;Temp;Humidity;BMP_temperature;BMP_pressure;BME280_temperature;BME280_humidity;BME280_pressure;Samples;Min_cycle;Max_cycle;Signal;HPM_P1;HPM_P2
2022/05/14 04:31:54;;;;;;;;;1.00;1.00;;;;;17.47;45.59;101826.78;5070677;27;45553;-74
2022/05/14 04:34:20;;;;;;;;;3.25;3.25;;;;;17.47;45.38;101821.38;5055447;28;45268;-73
2022/05/14 04:36:45;;;;;;;;;3.00;1.00;;;;;17.45;45.62;101822.41;5055456;28;45307;-75
2022/05/14 04:39:11;;;;;;;;;2.00;2.00;;;;;17.47;45.83;101823.22;5055677;28;45374;-75
2022/05/14 04:41:36;;;;;;;;;2.75;1.00;;;;;17.35;45.69;101809.38;5055499;28;46523;-74
2022/05/14 04:44:02;;;;;;;;;1.50;1.50;;;;;17.42;45.43;101814.47;5055585;28;45230;-75
2022/05/14 04:46:28;;;;;;;;;2.75;2.25;;;;;17.49;45.03;101829.44;5055089;28;46199;-74
2022/05/14 04:48:54;;;;;;;;;3.50;1.00;;;;;17.47;45.33;101820.50;5037215;28;45414;-74
2022/05/14 04:51:19;;;;;;;;;2.50;1.25;;;;;17.51;45.56;101830.22;5055333;28;45638;-73
2022/05/14 04:53:45;;;;;;;;;3.00;1.00;;;;;17.52;45.30;101824.72;5055528;28;45668;-74
2022/05/14 04:56:11;;;;;;;;;1.00;1.00;;;;;17.51;45.23;101822.09;5054954;28;46036;-74
2022/05/14 04:58:36;;;;;;;;;1.25;1.25;;;;;17.51;45.36;101816.66;5055374;28;45351;-76
2022/05/14 05:01:01;;;;;;;;;1.00;1.00;;;;;17.51;45.11;101822.09;5033874;28;45336;-73
2022/05/14 05:03:28;;;;;;;;;1.00;1.00;;;;;17.55;45.61;101826.34;5047573;28;45348;-74
2022/05/14 05:05:58;;;;;;;;;2.00;2.00;;;;;17.54;45.43;101813.75;5054764;28;47235;-74
2022/05/14 05:08:28;;;;;;;;;2.50;2.50;;;;;17.61;45.45;101826.88;5055564;28;45418;-73
2022/05/14 05:10:53;;;;;;;;;1.00;1.00;;;;;17.55;45.02;101820.94;5033958;28;45340;-75
2022/05/14 05:13:22;;;;;;;;;2.50;2.50;;;;;17.63;45.39;101824.09;5048014;28;45268;-75
2022/05/14 05:15:48;;;;;;;;;1.25;1.25;;;;;17.64;45.36;101824.03;5041560;28;46111;-75
2022/05/14 05:18:14;;;;;;;;;1.00;1.00;;;;;17.70;45.38;101825.50;5055033;28;45273;-72
2022/05/14 05:20:42;;;;;;;;;2.00;2.00;;;;;17.70;45.49;101833.63;5054586;28;45355;-74
2022/05/14 05:23:12;;;;;;;;;1.75;1.75;;;;;17.71;45.02;101841.69;5054448;28;45240;-74
2022/05/14 05:25:38;;;;;;;;;2.25;2.25;;;;;17.67;45.34;101837.41;5033145;28;46513;-75
2022/05/14 05:28:05;;;;;;;;;4.00;2.25;;;;;17.67;45.29;101834.69;5048471;28;45393;-75
2022/05/14 05:30:31;;;;;;;;;2.00;2.00;;;;;17.65;45.09;101827.59;5054860;28;45248;-74
2022/05/14 05:32:57;;;;;;;;;2.00;2.00;;;;;17.66;45.30;101821.22;5053976;28;45506;-73
2022/05/14 05:35:23;;;;;;;;;1.50;1.25;;;;;17.80;45.60;101833.97;5054200;28;45427;-75
2022/05/14 05:37:49;;;;;;;;;0.25;0.25;;;;;17.78;45.31;101829.50;5054352;28;45361;-76
2022/05/14 05:40:15;;;;;;;;;3.75;3.00;;;;;17.78;44.93;101820.50;5054749;28;45553;-74
2022/05/14 05:42:41;;;;;;;;;1.50;1.50;;;;;17.82;44.81;101835.63;5054199;28;45528;-74
2022/05/14 05:45:07;;;;;;;;;4.00;2.00;;;;;17.88;45.10;101843.41;5054439;28;45391;-73
2022/05/14 05:47:33;;;;;;;;;6.00;5.00;;;;;17.88;44.99;101835.25;5054450;28;45356;-73
2022/05/14 05:49:58;;;;;;;;;3.00;3.00;;;;;17.91;45.08;101847.78;5054457;28;45637;-75
2022/05/14 05:52:24;;;;;;;;;3.00;3.00;;;;;17.92;44.90;101847.69;5054447;28;45454;-73
2022/05/14 05:57:37;;;;;;;;;2.00;2.00;;;;;17.83;45.20;101828.38;5054014;28;45354;-72
2022/05/14 06:00:21;;;;;;;;;2.00;2.00;;;;;17.82;44.51;101832.91;5054536;28;45613;-72
2022/05/14 06:02:46;;;;;;;;;2.00;2.00;;;;;17.84;44.60;101838.25;5036404;28;46314;-74
2022/05/14 06:05:13;;;;;;;;;5.25;3.25;;;;;17.89;44.63;101850.59;5054898;28;46454;-72
2022/05/14 06:07:39;;;;;;;;;2.50;2.50;;;;;17.71;45.33;101819.97;5040918;28;45386;-74
2022/05/14 06:10:07;;;;;;;;;2.00;2.00;;;;;17.86;44.48;101841.78;5054254;28;45191;-75
2022/05/14 06:12:34;;;;;;;;;2.50;2.50;;;;;17.87;44.26;101841.66;5053873;28;45993;-72
2022/05/14 06:15:00;;;;;;;;;2.25;2.25;;;;;17.92;45.14;101846.81;5032633;28;46856;-75
2022/05/14 06:17:25;;;;;;;;;2.50;2.00;;;;;17.93;45.17;101851.28;5054203;28;45300;-76
2022/05/14 06:19:50;;;;;;;;;2.50;2.00;;;;;18.05;44.83;101861.41;5054062;28;45354;-76
2022/05/14 06:22:16;;;;;;;;;4.00;3.00;;;;;18.08;44.85;101862.09;5053917;28;45395;-78
2022/05/14 06:24:41;;;;;;;;;3.50;2.25;;;;;18.16;44.82;101867.06;5053053;28;45552;-79
2022/05/14 06:27:06;;;;;;;;;3.75;2.75;;;;;18.10;44.34;101848.44;5051345;28;45382;-75
2022/05/14 06:29:33;;;;;;;;;3.00;3.00;;;;;18.12;44.59;101855.50;5036295;28;45352;-78
2022/05/14 06:31:59;;;;;;;;;2.00;2.00;;;;;18.20;43.97;101865.06;5053538;28;45442;-74
2022/05/14 06:34:25;;;;;;;;;2.00;2.00;;;;;18.19;44.05;101869.63;5053678;28;45316;-75
2022/05/14 06:36:52;;;;;;;;;3.25;2.50;;;;;18.21;44.13;101878.50;5053643;28;45338;-76
2022/05/14 06:39:17;;;;;;;;;2.00;2.00;;;;;18.21;44.14;101867.66;5054069;28;45497;-75
2022/05/14 06:41:43;;;;;;;;;8.25;5.00;;;;;18.26;44.25;101873.72;5053526;28;45439;-75
2022/05/14 06:44:08;;;;;;;;;4.50;3.00;;;;;18.27;44.06;101866.44;5053467;28;46149;-75
2022/05/14 06:46:35;;;;;;;;;2.00;2.00;;;;;18.31;44.11;101868.84;5053661;28;45383;-75
2022/05/14 06:49:01;;;;;;;;;5.50;4.00;;;;;18.31;43.63;101871.56;5054025;28;45439;-76
2022/05/14 06:51:28;;;;;;;;;2.50;2.50;;;;;18.33;43.97;101863.34;5057011;28;45389;-74
2022/05/14 06:53:58;;;;;;;;;5.75;5.75;;;;;18.31;44.37;101866.16;5057715;28;45499;-74
2022/05/14 06:56:26;;;;;;;;;4.00;4.00;;;;;18.34;43.91;101865.09;5056894;28;45631;-74
2022/05/14 06:58:51;;;;;;;;;4.50;4.50;;;;;18.44;43.81;101875.31;5057027;28;45516;-75
2022/05/14 07:01:19;;;;;;;;;5.25;5.25;;;;;18.43;43.97;101875.41;5057268;28;45366;-74
2022/05/14 07:06:38;;;;;;;;;5.00;5.00;;;;;18.56;44.14;101873.66;5057027;28;45484;-76
2022/05/14 07:09:11;;;;;;;;;4.00;4.00;;;;;18.58;43.64;101871.78;5054991;28;45605;-74
2022/05/14 07:11:38;;;;;;;;;3.50;3.50;;;;;18.64;43.85;101878.66;5056163;28;45597;-75
2022/05/14 07:14:05;;;;;;;;;4.00;4.00;;;;;18.70;43.32;101868.31;5050611;28;46448;-77
2022/05/14 07:16:30;;;;;;;;;3.00;3.00;;;;;18.65;43.26;101855.97;5036720;28;45265;-75
2022/05/14 07:18:56;;;;;;;;;3.25;2.75;;;;;18.69;43.05;101852.97;5036661;28;45446;-76
2022/05/14 07:21:21;;;;;;;;;4.00;4.00;;;;;18.75;42.95;101852.59;5036722;28;45331;-71
2022/05/14 07:23:46;;;;;;;;;5.25;3.50;;;;;18.77;42.75;101852.50;5036740;28;45670;-75
2022/05/14 07:26:12;;;;;;;;;4.50;4.50;;;;;18.77;42.66;101852.50;5036672;28;45330;-75
2022/05/14 07:28:37;;;;;;;;;4.50;2.75;;;;;18.86;42.97;101862.78;5037379;28;45621;-73
2022/05/14 07:31:04;;;;;;;;;4.50;4.50;;;;;18.88;43.27;101850.84;5036738;28;45510;-78
2022/05/14 07:33:31;;;;;;;;;3.75;2.50;;;;;18.80;42.29;101838.69;5041560;28;45992;-76
2022/05/14 07:36:03;;;;;;;;;2.50;2.50;;;;;18.99;42.76;101854.72;5056284;28;45382;-73
2022/05/14 07:38:32;;;;;;;;;5.75;3.00;;;;;19.02;42.51;101855.41;5056502;28;45438;-75
2022/05/14 07:40:58;;;;;;;;;5.00;5.00;;;;;19.12;42.29;101861.16;5056238;28;45973;-74
2022/05/14 07:43:30;;;;;;;;;4.00;3.00;;;;;19.12;42.82;101842.13;5056702;28;46421;-71
2022/05/14 07:46:00;;;;;;;;;3.25;3.25;;;;;19.21;42.69;101838.81;5056336;28;45557;-75
2022/05/14 07:48:33;;;;;;;;;3.00;3.00;;;;;19.22;42.22;101844.13;5056921;28;45174;-77
2022/05/14 07:51:01;;;;;;;;;5.50;4.75;;;;;19.25;42.17;101841.22;5037344;28;46609;-73
2022/05/14 07:53:30;;;;;;;;;4.00;3.50;;;;;19.28;42.05;101843.75;5056427;28;45292;-74
2022/05/14 07:56:00;;;;;;;;;3.00;3.00;;;;;19.26;42.39;101836.66;5056115;28;45343;-75
2022/05/14 07:58:26;;;;;;;;;2.00;1.75;;;;;19.26;42.17;101833.94;5056400;28;45251;-75
2022/05/14 08:00:52;;;;;;;;;7.75;3.50;;;;;19.28;42.59;101835.59;5054945;28;45460;-74
2022/05/14 08:03:17;;;;;;;;;4.50;4.00;;;;;19.41;42.00;101838.38;5055898;28;45594;-73
2022/05/14 08:05:42;;;;;;;;;5.00;5.00;;;;;19.44;41.71;101832.75;5055814;28;45578;-73
2022/05/14 08:08:08;;;;;;;;;5.25;5.25;;;;;19.43;41.48;101835.56;5056513;28;45284;-74
2022/05/14 08:10:34;;;;;;;;;5.25;3.50;;;;;19.42;41.82;101831.97;5055930;28;45505;-72
2022/05/14 08:13:00;;;;;;;;;4.00;4.00;;;;;19.43;42.29;101839.16;5055843;28;45990;-73
2022/05/14 08:15:27;;;;;;;;;5.00;3.00;;;;;19.45;41.58;101839.94;5038387;28;45312;-73
2022/05/14 08:17:53;;;;;;;;;3.00;3.00;;;;;19.46;42.04;101833.53;5036346;28;45388;-74
2022/05/14 08:20:19;;;;;;;;;7.00;5.25;;;;;19.56;41.54;101836.53;5035340;28;45254;-75
2022/05/14 08:25:30;;;;;;;;;4.25;4.25;;;;;19.61;42.16;101839.81;5035508;28;45330;-74
2022/05/14 08:27:55;;;;;;;;;3.25;3.25;;;;;19.61;41.43;101832.53;5035718;28;45266;-73
2022/05/14 08:30:24;;;;;;;;;3.00;3.00;;;;;19.69;41.37;101833.88;5035715;28;45426;-73
2022/05/14 08:32:50;;;;;;;;;7.00;6.50;;;;;19.78;41.46;101830.53;5033723;28;47595;-75
2022/05/14 08:35:17;;;;;;;;;3.00;2.75;;;;;19.80;41.54;101831.31;5055970;28;45573;-73
2022/05/14 08:37:42;;;;;;;;;6.00;3.00;;;;;19.91;41.51;101832.31;5056331;28;45275;-72
2022/05/14 08:40:29;;;;;;;;;4.75;3.00;;;;;19.99;41.58;101834.50;5055821;28;45245;-74
2022/05/14 08:42:59;;;;;;;;;3.00;3.00;;;;;20.08;41.26;101836.59;5036536;28;48048;-74
2022/05/14 08:45:29;;;;;;;;;5.00;2.75;;;;;20.06;40.99;101819.53;5055721;28;45521;-75
2022/05/14 08:47:58;;;;;;;;;2.25;2.00;;;;;20.20;41.29;101826.72;5055391;28;45316;-75
2022/05/14 08:50:28;;;;;;;;;2.75;2.75;;;;;20.27;40.61;101820.75;5055481;28;45696;-74
2022/05/14 08:53:00;;;;;;;;;2.75;2.75;;;;;20.27;40.64;101809.00;5055470;28;45327;-74
2022/05/14 08:56:05;;;;;;;;;3.75;3.00;;;;;20.38;40.59;101818.19;5055064;28;45425;-71
2022/05/14 08:58:44;;;;;;;;;4.00;3.50;;;;;20.38;40.61;101801.84;4973624;28;45532;-74
2022/05/14 09:01:14;;;;;;;;;3.00;3.00;;;;;20.48;40.53;101812.09;5034206;28;45540;-73
2022/05/14 09:03:43;;;;;;;;;2.00;2.00;;;;;20.51;40.02;101817.31;5055249;28;46474;-75
2022/05/14 09:06:09;;;;;;;;;2.25;2.25;;;;;20.63;40.14;101830.09;5054935;28;45606;-74
2022/05/14 09:08:35;;;;;;;;;3.25;3.25;;;;;20.68;40.31;101834.22;5055134;28;45483;-74
2022/05/14 09:11:06;;;;;;;;;2.75;2.75;;;;;20.71;39.90;101824.97;5055015;28;46002;-75
2022/05/14 09:13:43;;;;;;;;;3.25;3.25;;;;;20.70;39.56;101817.78;5052506;28;47103;-73
2022/05/14 09:16:23;;;;;;;;;5.00;4.00;;;;;20.70;39.12;101824.09;5035096;28;45356;-73
2022/05/14 09:18:49;;;;;;;;;5.25;4.25;;;;;20.69;38.92;101826.91;5034913;28;45384;-74
2022/05/14 09:21:30;;;;;;;;;4.50;3.75;;;;;20.67;39.48;101818.84;5034608;28;45241;-73
2022/05/14 09:24:16;;;;;;;;;3.25;3.25;;;;;20.63;39.20;101811.00;5033397;28;46267;-75
2022/05/14 09:26:42;;;;;;;;;3.25;3.25;;;;;20.59;39.13;101810.34;5051652;28;45423;-73
2022/05/14 09:29:17;;;;;;;;;0.75;0.00;;;;;20.59;39.23;101802.19;5033794;28;45486;-75
2022/05/14 09:32:00;;;;;;;;;4.00;4.00;;;;;20.63;39.03;101798.28;5052741;28;45348;-74
2022/05/14 09:34:30;;;;;;;;;3.75;3.75;;;;;20.68;38.90;101819.72;5054640;28;45272;-77
2022/05/14 09:37:06;;;;;;;;;2.50;2.50;;;;;20.73;38.38;101806.66;5055086;28;45397;-79
2022/05/14 09:39:31;;;;;;;;;2.75;2.25;;;;;20.70;38.26;101795.97;5054696;28;45430;-75
2022/05/14 09:42:00;;;;;;;;;3.50;3.00;;;;;20.81;38.51;101806.97;5054814;28;45522;-76
2022/05/14 09:44:35;;;;;;;;;2.25;2.25;;;;;20.80;38.41;101791.59;5054544;28;45308;-75
2022/05/14 09:47:28;;;;;;;;;3.00;3.00;;;;;20.87;38.44;101800.19;5054774;28;45375;-74
2022/05/14 09:49:59;;;;;;;;;4.00;2.75;;;;;20.89;38.06;101796.41;5044699;28;45343;-74
2022/05/14 09:52:29;;;;;;;;;2.50;2.50;;;;;20.79;37.66;101795.31;5054776;28;45517;-76
2022/05/14 09:54:56;;;;;;;;;4.00;3.75;;;;;20.72;38.71;101786.72;5033131;28;47415;-74
2022/05/14 09:57:43;;;;;;;;;3.25;3.25;;;;;20.77;38.40;101778.19;5018218;28;45753;-73
2022/05/14 10:00:43;;;;;;;;;3.50;3.00;;;;;20.79;38.90;101770.78;5054758;28;45607;-73
2022/05/14 10:03:24;;;;;;;;;4.00;2.50;;;;;20.91;39.10;101769.91;5036959;28;45276;-74
2022/05/14 10:06:08;;;;;;;;;4.00;2.00;;;;;21.03;39.01;101774.44;5053972;28;46084;-75
2022/05/14 10:08:52;;;;;;;;;3.25;3.25;;;;;21.15;38.40;101776.28;5054350;28;45348;-74
2022/05/14 10:11:26;;;;;;;;;4.25;4.25;;;;;21.24;37.88;101779.34;5053993;28;45236;-73
2022/05/14 10:14:13;;;;;;;;;5.00;5.00;;;;;21.24;37.84;101774.75;5053992;28;45368;-76
2022/05/14 10:17:12;;;;;;;;;3.75;3.00;;;;;21.12;37.72;101771.03;5039724;28;46224;-75
2022/05/14 10:20:06;;;;;;;;;5.00;5.00;;;;;21.09;37.97;101771.28;5046905;28;45477;-73
2022/05/14 10:29:01;;;;;;;;;3.00;2.75;;;;;21.02;39.29;101766.38;5056539;28;45812;-75
2022/05/14 10:31:43;;;;;;;;;4.50;3.25;;;;;21.10;38.91;101764.81;5056258;28;45379;-73
2022/05/14 10:34:14;;;;;;;;;3.00;3.00;;;;;21.21;38.76;101769.53;5058494;28;45442;-74
2022/05/14 10:36:48;;;;;;;;;3.00;3.00;;;;;21.35;38.77;101761.16;5052560;28;45460;-75
2022/05/14 10:39:49;;;;;;;;;5.25;3.50;;;;;21.50;38.93;101765.50;5041495;28;45429;-74
2022/05/14 10:42:29;;;;;;;;;6.00;4.00;;;;;21.57;38.98;101754.13;5040234;28;45420;-71
2022/05/14 10:45:08;;;;;;;;;5.25;3.25;;;;;21.60;37.53;101757.50;5037109;28;45391;-75
2022/05/14 10:47:39;;;;;;;;;4.00;3.50;;;;;21.72;36.99;101758.41;5058432;28;45579;-76
2022/05/14 10:50:14;;;;;;;;;4.75;4.00;;;;;21.76;38.11;101741.69;5031972;28;46679;-77
2022/05/14 10:52:41;;;;;;;;;4.25;4.25;;;;;21.75;37.12;101747.25;5050411;28;45255;-74
2022/05/14 10:55:32;;;;;;;;;5.75;5.75;;;;;21.87;37.26;101754.47;5054804;28;45360;-77
2022/05/14 10:58:07;;;;;;;;;5.00;5.00;;;;;21.92;37.09;101756.88;5055968;28;45587;-77
2022/05/14 11:00:45;;;;;;;;;6.50;4.50;;;;;21.93;37.08;101747.69;5052285;28;46318;-77
2022/05/14 11:03:26;;;;;;;;;3.50;2.50;;;;;22.03;37.18;101746.03;5055853;28;45197;-76
2022/05/14 11:05:54;;;;;;;;;4.25;4.25;;;;;22.11;36.29;101747.16;5054918;28;45850;-77
2022/05/14 11:08:33;;;;;;;;;4.75;3.25;;;;;22.13;36.45;101753.34;5036048;28;45533;-74
2022/05/14 11:11:16;;;;;;;;;4.25;4.00;;;;;22.08;36.59;101747.41;5053642;28;46311;-75
2022/05/14 11:13:52;;;;;;;;;3.00;3.00;;;;;22.07;36.82;101723.81;5055993;28;45191;-73
2022/05/14 11:16:18;;;;;;;;;5.00;3.00;;;;;22.21;36.72;101723.56;5052938;28;45410;-75
2022/05/14 11:18:49;;;;;;;;;4.50;3.00;;;;;22.36;36.56;101724.25;5058478;28;45235;-76
2022/05/14 11:21:18;;;;;;;;;3.00;3.00;;;;;22.43;36.10;101728.22;5043158;28;45351;-75
2022/05/14 11:23:47;;;;;;;;;5.00;5.00;;;;;22.53;36.71;101725.63;5037603;28;45192;-73
2022/05/14 11:26:16;;;;;;;;;3.00;3.00;;;;;22.63;36.01;101716.53;5037821;28;45320;-76
2022/05/14 11:28:44;;;;;;;;;3.50;3.50;;;;;22.71;35.53;101695.94;5044834;28;45531;-76
2022/05/14 11:31:14;;;;;;;;;3.00;3.00;;;;;22.94;35.47;101720.41;5032262;28;47189;-75
2022/05/14 11:33:40;;;;;;;;;5.25;3.50;;;;;23.08;35.28;101705.59;5057025;28;45242;-75
2022/05/14 11:36:11;;;;;;;;;4.25;4.25;;;;;23.24;35.05;101711.50;5056598;28;45228;-81
2022/05/14 11:38:41;;;;;;;;;3.25;3.25;;;;;23.35;34.33;101714.22;5057370;28;45630;-74
2022/05/14 11:41:10;;;;;;;;;3.50;3.50;;;;;23.42;34.08;101705.47;5057576;28;47031;-74
2022/05/14 11:43:51;;;;;;;;;4.25;2.25;;;;;23.56;33.54;101700.59;5057516;28;45354;-76
2022/05/14 11:46:19;;;;;;;;;3.00;3.00;;;;;23.68;33.35;101710.50;5057143;28;45369;-78
2022/05/14 11:48:53;;;;;;;;;4.25;4.25;;;;;23.85;32.64;101705.44;5056769;28;45395;-75
2022/05/14 11:51:29;;;;;;;;;4.75;3.75;;;;;23.84;32.74;101692.75;5056260;28;45303;-76
2022/05/14 11:54:17;;;;;;;;;5.75;4.00;;;;;24.06;31.60;101700.88;5056771;28;45397;-76
2022/05/14 11:56:52;;;;;;;;;6.00;6.00;;;;;24.11;31.59;101696.72;5056587;28;45265;-76
2022/05/14 11:59:40;;;;;;;;;4.25;4.25;;;;;24.21;31.94;101688.59;5056559;28;45429;-76
2022/05/14 12:02:17;;;;;;;;;6.75;5.25;;;;;24.32;31.62;101694.00;5056868;28;46204;-76
2022/05/14 12:04:49;;;;;;;;;3.75;3.75;;;;;24.43;30.89;101698.50;5048204;28;45250;-74
2022/05/14 12:07:34;;;;;;;;;4.00;4.00;;;;;24.47;31.75;101695.34;5052950;28;45193;-77
2022/05/14 12:10:25;;;;;;;;;4.00;2.75;;;;;24.55;32.38;101691.06;5056430;28;45276;-79
2022/05/14 12:13:09;;;;;;;;;3.25;3.25;;;;;24.61;31.34;101685.88;5051386;28;46190;-78
2022/05/14 12:15:36;;;;;;;;;3.00;3.00;;;;;24.70;32.17;101679.56;5038246;28;45431;-78
2022/05/14 12:18:02;;;;;;;;;5.00;4.00;;;;;24.81;30.98;101687.69;5036703;28;45305;-77
2022/05/14 12:20:31;;;;;;;;;2.75;2.75;;;;;24.82;30.57;101683.09;5036021;28;45471;-79
2022/05/14 12:23:03;;;;;;;;;3.25;3.25;;;;;24.86;30.28;101676.28;5026985;28;47006;-75
2022/05/14 12:25:45;;;;;;;;;2.00;2.00;;;;;24.86;30.71;101670.81;5055558;28;45370;-76
2022/05/14 12:28:37;;;;;;;;;1.25;1.25;;;;;24.85;30.67;101653.47;5036647;28;45469;-79
2022/05/14 12:33:52;;;;;;;;;4.00;4.00;;;;;25.07;29.80;101665.28;5044532;28;45727;-77
2022/05/14 12:36:18;;;;;;;;;5.50;4.25;;;;;25.05;29.88;101648.06;5055852;28;45492;-76
2022/05/14 12:38:43;;;;;;;;;3.75;3.75;;;;;25.18;30.35;101666.00;5056519;28;45552;-76
2022/05/14 12:41:22;;;;;;;;;4.75;4.25;;;;;25.26;30.16;101660.66;5055784;28;45319;-75
2022/05/14 12:43:48;;;;;;;;;3.75;3.75;;;;;25.39;29.59;101663.13;5056385;28;45362;-79
2022/05/14 12:46:14;;;;;;;;;7.00;4.75;;;;;25.50;29.60;101642.91;5037907;28;45796;-80
2022/05/14 12:48:49;;;;;;;;;3.50;3.50;;;;;25.67;29.59;101650.44;5055442;28;45349;-80
2022/05/14 12:51:24;;;;;;;;;3.00;3.00;;;;;25.74;30.04;101640.59;5035394;28;47467;-78
2022/05/14 12:53:51;;;;;;;;;2.75;2.75;;;;;25.72;29.70;101641.75;5043495;28;45632;-79
2022/05/14 12:56:18;;;;;;;;;5.00;5.00;;;;;25.68;29.33;101629.34;5054194;28;45417;-77
2022/05/14 12:58:45;;;;;;;;;4.75;3.50;;;;;25.71;27.98;101629.91;5053666;28;45422;-77
2022/05/14 13:01:11;;;;;;;;;4.00;3.00;;;;;25.86;28.11;101631.16;5054473;28;45334;-79
2022/05/14 13:03:42;;;;;;;;;3.00;3.00;;;;;25.94;27.90;101622.22;5054864;28;45327;-78
2022/05/14 13:06:21;;;;;;;;;6.50;3.50;;;;;26.06;27.41;101620.13;5055195;28;45350;-77
2022/05/14 13:08:55;;;;;;;;;3.00;3.00;;;;;26.10;27.07;101629.84;5055116;28;45394;-77
2022/05/14 13:11:23;;;;;;;;;1.00;1.00;;;;;25.97;27.43;101611.78;5054713;28;46019;-78
2022/05/14 13:13:52;;;;;;;;;5.50;5.50;;;;;25.95;28.26;101601.94;5055074;28;45328;-78
2022/05/14 13:16:24;;;;;;;;;4.50;4.50;;;;;25.98;28.07;101602.53;5037069;28;45645;-78
2022/05/14 13:19:18;;;;;;;;;4.00;4.00;;;;;26.17;27.74;101611.72;5055223;28;45378;-80
2022/05/14 13:21:52;;;;;;;;;6.00;5.00;;;;;26.36;27.32;101611.69;5054193;28;45430;-77
2022/05/14 13:24:27;;;;;;;;;4.50;3.75;;;;;26.38;26.58;101601.38;5055123;28;46134;-78
2022/05/14 13:26:56;;;;;;;;;3.25;3.25;;;;;26.36;26.97;101601.56;5054630;28;45338;-78
2022/05/14 13:29:35;;;;;;;;;6.25;3.50;;;;;26.50;26.70;101602.91;5055200;28;45355;-77
2022/05/14 13:32:20;;;;;;;;;5.00;3.75;;;;;26.58;27.63;101603.03;5054647;28;45220;-77
2022/05/14 13:37:42;;;;;;;;;3.25;3.25;;;;;26.88;27.12;101596.31;5054864;28;45388;-77
2022/05/14 13:40:19;;;;;;;;;2.75;2.75;;;;;27.05;26.46;101581.72;5057883;28;45360;-80
2022/05/14 13:42:51;;;;;;;;;3.00;3.00;;;;;27.15;26.47;101589.91;5038100;28;47703;-79
2022/05/14 13:45:24;;;;;;;;;3.25;3.25;;;;;27.32;26.58;101593.69;5037423;28;46127;-78
2022/05/14 13:47:54;;;;;;;;;3.75;3.75;;;;;27.33;25.98;101562.38;5054190;28;45486;-79
2022/05/14 13:50:33;;;;;;;;;4.25;4.00;;;;;27.35;25.45;101566.69;5055504;28;45454;-76
2022/05/14 13:52:59;;;;;;;;;2.75;2.50;;;;;27.42;25.39;101573.28;5054724;28;45712;-78
2022/05/14 13:55:31;;;;;;;;;6.50;3.00;;;;;27.46;25.85;101574.72;5055616;28;45541;-80
2022/05/14 13:58:01;;;;;;;;;3.50;2.75;;;;;27.51;24.73;101568.72;5055560;28;45398;-80
2022/05/14 14:00:31;;;;;;;;;6.00;5.00;;;;;27.63;25.21;101580.38;5049437;28;45404;-78
2022/05/14 14:03:06;;;;;;;;;3.50;3.00;;;;;27.63;25.45;101573.00;5053227;28;45392;-79
2022/05/14 14:05:34;;;;;;;;;3.25;3.25;;;;;27.70;25.33;101571.31;5056968;28;46271;-83
2022/05/14 14:08:02;;;;;;;;;6.00;5.00;;;;;27.82;25.75;101564.50;5056413;28;45339;-75
2022/05/14 14:10:33;;;;;;;;;7.00;3.75;;;;;27.84;25.75;101547.78;5058938;28;45387;-78
2022/05/14 14:13:03;;;;;;;;;4.00;4.00;;;;;27.90;25.64;101547.16;5058400;28;44663;-80
2022/05/14 14:15:30;;;;;;;;;6.00;6.00;;;;;27.97;24.67;101556.50;5058113;28;45292;-81
2022/05/14 14:17:56;;;;;;;;;4.00;4.00;;;;;27.99;25.26;101559.06;5058090;28;45400;-83
2022/05/14 14:20:24;;;;;;;;;2.50;2.50;;;;;27.88;25.32;101540.06;5057559;28;45295;-79
2022/05/14 14:22:51;;;;;;;;;3.00;3.00;;;;;28.09;26.13;101555.19;5046634;28;45539;-80
2022/05/14 14:25:17;;;;;;;;;6.50;4.50;;;;;28.19;26.30;101558.72;5044635;28;46054;-79
2022/05/14 14:27:44;;;;;;;;;4.00;4.00;;;;;28.20;26.16;101545.78;5058620;28;45534;-80
2022/05/14 14:30:13;;;;;;;;;4.00;4.00;;;;;28.28;24.99;101543.06;5056997;28;45578;-79
2022/05/14 14:32:39;;;;;;;;;3.00;2.75;;;;;28.31;25.62;101533.59;5056624;28;45390;-79
2022/05/14 14:35:06;;;;;;;;;3.50;3.00;;;;;28.23;25.25;101524.28;5058870;28;45404;-77
2022/05/14 14:37:32;;;;;;;;;3.75;3.75;;;;;28.36;25.20;101533.97;5059729;28;45265;-77
2022/05/14 14:39:58;;;;;;;;;5.50;4.00;;;;;28.25;25.05;101510.28;5057952;28;45312;-79
2022/05/14 14:42:23;;;;;;;;;3.00;3.00;;;;;28.45;24.39;101535.72;5056384;28;45353;-77
2022/05/14 14:44:51;;;;;;;;;6.00;4.50;;;;;28.41;24.69;101523.31;5034966;28;46913;-80
2022/05/14 14:47:16;;;;;;;;;4.25;4.25;;;;;28.57;25.03;101521.47;5032084;28;45678;-76
2022/05/14 14:49:42;;;;;;;;;4.50;3.50;;;;;28.59;24.42;101513.00;5057391;28;45382;-79
2022/05/14 14:52:07;;;;;;;;;3.50;3.00;;;;;28.66;24.12;101516.81;5057177;28;45541;-78
2022/05/14 14:54:33;;;;;;;;;4.00;4.00;;;;;28.72;24.98;101516.13;5047599;28;46383;-75
2022/05/14 14:56:59;;;;;;;;;5.25;3.50;;;;;28.79;24.29;101508.06;5038335;28;45365;-77
2022/05/14 14:59:24;;;;;;;;;5.00;3.50;;;;;28.79;24.74;101499.78;5034910;28;45459;-79
2022/05/14 15:01:59;;;;;;;;;2.75;2.75;;;;;28.72;24.04;101496.81;5037661;28;45599;-77
2022/05/14 15:04:36;;;;;;;;;3.00;3.00;;;;;28.45;24.56;101467.63;5039749;28;46005;-78
2022/05/14 15:07:04;;;;;;;;;3.50;3.50;;;;;28.55;24.83;101506.97;5052446;28;45573;-78
2022/05/14 15:09:30;;;;;;;;;6.50;4.00;;;;;28.48;24.74;101497.63;5052870;28;45389;-79
2022/05/14 15:11:56;;;;;;;;;3.25;3.25;;;;;28.55;24.65;101500.56;5052322;28;45432;-78
2022/05/14 15:14:24;;;;;;;;;2.75;2.75;;;;;28.46;25.08;101498.81;5053507;28;45818;-78
2022/05/14 15:16:50;;;;;;;;;5.50;3.00;;;;;28.51;25.13;101504.69;5055503;28;45418;-78
2022/05/14 15:19:15;;;;;;;;;3.25;3.00;;;;;28.28;24.81;101478.78;5056304;28;45344;-76
2022/05/14 15:21:41;;;;;;;;;3.75;3.75;;;;;28.28;25.29;101482.41;5056793;28;45450;-77
2022/05/14 15:24:06;;;;;;;;;3.75;3.50;;;;;28.36;25.00;101485.19;5057290;28;46149;-76
2022/05/14 15:26:32;;;;;;;;;6.00;3.75;;;;;28.38;25.21;101494.16;5057601;28;45558;-78
2022/05/14 15:28:57;;;;;;;;;3.00;3.00;;;;;28.36;25.64;101481.56;5057636;28;45344;-76
2022/05/14 15:31:42;;;;;;;;;3.25;2.75;;;;;28.46;25.84;101487.78;5056434;28;45483;-76
2022/05/14 15:34:09;;;;;;;;;2.25;2.25;;;;;28.42;25.43;101483.63;5056912;28;46218;-75
2022/05/14 15:36:34;;;;;;;;;3.00;3.00;;;;;28.39;26.19;101475.72;5056574;28;45233;-77
2022/05/14 15:38:59;;;;;;;;;5.00;3.75;;;;;28.37;25.83;101486.91;5056939;28;45352;-75
2022/05/14 15:41:26;;;;;;;;;7.50;5.25;;;;;28.40;25.19;101491.22;5038452;28;46051;-78
2022/05/14 15:43:53;;;;;;;;;4.75;3.25;;;;;28.48;25.89;101477.47;5056631;28;45315;-77
2022/05/14 15:46:25;;;;;;;;;3.00;3.00;;;;;28.61;25.90;101473.16;5056425;28;45383;-77
2022/05/14 15:49:01;;;;;;;;;3.00;3.00;;;;;28.87;25.46;101486.00;5056633;28;45463;-75
2022/05/14 15:51:27;;;;;;;;;5.75;4.50;;;;;28.98;25.16;101466.34;5056610;28;45505;-76
2022/05/14 15:53:54;;;;;;;;;4.00;4.00;;;;;29.13;25.96;101467.38;5057076;28;45360;-75
2022/05/14 15:56:24;;;;;;;;;4.00;3.00;;;;;29.21;24.97;101480.31;5056329;28;45395;-76
2022/05/14 15:58:49;;;;;;;;;3.00;3.00;;;;;29.24;24.75;101468.91;5035177;28;45383;-78
2022/05/14 16:01:15;;;;;;;;;4.00;4.00;;;;;29.25;25.20;101463.22;5056383;28;45324;-76
2022/05/14 16:03:41;;;;;;;;;3.25;3.00;;;;;29.27;24.86;101451.97;5056605;28;45325;-78
2022/05/14 16:06:08;;;;;;;;;3.25;3.00;;;;;29.36;24.73;101464.78;5056559;28;45435;-76
2022/05/14 16:08:33;;;;;;;;;5.25;2.00;;;;;29.32;24.74;101458.72;5054641;28;45529;-76
2022/05/14 16:16:28;;;;;;;;;3.25;3.25;;;;;29.45;24.11;101463.72;5057104;28;45394;-75
2022/05/14 16:18:53;;;;;;;;;5.00;3.75;;;;;29.50;24.58;101455.78;5062057;28;45403;-76
2022/05/14 16:21:21;;;;;;;;;7.75;5.25;;;;;29.54;24.67;101453.50;5066258;28;45320;-75
2022/05/14 16:23:52;;;;;;;;;4.75;3.50;;;;;29.55;24.59;101458.88;5070323;28;45349;-73
2022/05/14 16:26:18;;;;;;;;;4.25;3.00;;;;;29.56;24.53;101448.69;5048341;28;45426;-75
2022/05/14 16:28:47;;;;;;;;;3.00;2.50;;;;;29.57;24.63;101437.47;5037363;28;45382;-77
2022/05/14 16:31:13;;;;;;;;;3.75;2.50;;;;;29.61;24.66;101433.28;5055732;28;45380;-78
2022/05/14 16:33:39;;;;;;;;;2.50;2.50;;;;;29.60;24.57;101428.78;5034799;28;47295;-76
2022/05/14 16:36:06;;;;;;;;;2.50;2.50;;;;;29.75;24.59;101442.75;5049973;28;45483;-78